createdAt,value
2023-04-08T00:00:09.083Z,4.13
2023-04-08T00:03:06.018Z,4.08
2023-04-08T00:06:03.974Z,4.00
2023-04-08T00:09:00.985Z,4.09
2023-04-08T00:11:57.924Z,4.09
2023-04-08T00:14:54.816Z,4.06
2023-04-08T00:17:53.629Z,4.02
2023-04-08T00:20:50.538Z,4.05
2023-04-08T00:23:47.801Z,4.03
2023-04-08T00:26:44.609Z,4.02
2023-04-08T00:29:41.416Z,3.98
2023-04-08T00:32:38.530Z,4.00
2023-04-08T00:35:35.407Z,4.11
2023-04-08T00:38:32.276Z,4.00
2023-04-08T00:41:29.070Z,4.05
2023-04-08T00:44:25.903Z,3.98
2023-04-08T00:47:22.900Z,4.00
2023-04-08T00:50:20.408Z,4.08
2023-04-08T00:53:19.636Z,3.95
2023-04-08T00:56:16.486Z,3.94
2023-04-08T00:59:13.568Z,3.95
2023-04-08T01:02:36.268Z,3.88
2023-04-08T01:05:56.677Z,3.82
2023-04-08T01:08:54.471Z,3.91
2023-04-08T01:11:53.774Z,4.01
2023-04-08T01:14:55.829Z,3.76
2023-04-08T01:17:58.765Z,3.94
2023-04-08T01:20:56.397Z,3.92
2023-04-08T01:24:30.588Z,3.95
2023-04-08T01:27:30.937Z,4.03
2023-04-08T01:30:30.677Z,3.95
2023-04-08T01:33:28.401Z,3.80
2023-04-08T01:36:26.413Z,3.80
2023-04-08T01:39:25.428Z,3.77
2023-04-08T01:42:25.938Z,3.83
2023-04-08T01:45:24.139Z,3.79
2023-04-08T01:48:21.694Z,3.72
2023-04-08T01:51:20.047Z,3.86
2023-04-08T01:54:16.962Z,3.71
2023-04-08T01:57:24.141Z,3.76
2023-04-08T02:00:25.997Z,3.65
2023-04-08T02:03:25.690Z,3.57
2023-04-08T02:06:23.717Z,3.51
2023-04-08T02:09:20.517Z,3.47
2023-04-08T02:12:17.739Z,3.45
2023-04-08T02:15:15.705Z,3.35
2023-04-08T02:18:19.208Z,3.17
2023-04-08T02:21:18.121Z,3.33
2023-04-08T02:24:17.643Z,3.40
2023-04-08T02:27:15.811Z,3.36
2023-04-08T02:30:13.579Z,3.32
2023-04-08T02:33:12.269Z,3.38
2023-04-08T02:36:11.152Z,3.41
2023-04-08T02:39:08.031Z,3.50
2023-04-08T02:42:05.956Z,3.38
2023-04-08T02:45:03.063Z,3.54
2023-04-08T02:48:01.260Z,3.51
2023-04-08T02:50:58.135Z,3.40
2023-04-08T02:53:55.395Z,3.47
2023-04-08T02:56:52.213Z,3.47
2023-04-08T02:59:49.010Z,3.47
2023-04-08T03:02:46.313Z,3.42
2023-04-08T03:05:43.263Z,3.40
2023-04-08T03:08:40.286Z,3.38
2023-04-08T03:11:37.090Z,3.52
2023-04-08T03:14:33.940Z,3.58
2023-04-08T03:17:33.721Z,3.41
2023-04-08T03:20:30.836Z,3.64
2023-04-08T03:23:27.647Z,3.54
2023-04-08T03:26:24.499Z,3.54
2023-04-08T03:29:21.301Z,3.34
2023-04-08T03:32:18.856Z,3.35
2023-04-08T03:35:15.720Z,3.32
2023-04-08T03:38:12.534Z,3.42
2023-04-08T03:41:09.424Z,3.18
2023-04-08T03:44:06.361Z,3.36
2023-04-08T03:47:03.184Z,3.28
2023-04-08T03:50:00.016Z,3.14
2023-04-08T03:52:56.823Z,3.02
2023-04-08T03:55:56.652Z,3.13
2023-04-08T03:58:53.802Z,3.06
2023-04-08T04:01:51.541Z,3.05
2023-04-08T04:04:48.509Z,2.80
2023-04-08T04:07:45.384Z,2.92
2023-04-08T04:10:42.310Z,2.97
2023-04-08T04:13:39.204Z,2.90
2023-04-08T04:16:36.147Z,2.90
2023-04-08T04:19:33.102Z,2.92
2023-04-08T04:22:29.969Z,2.83
2023-04-08T04:25:27.067Z,2.95
2023-04-08T04:28:24.055Z,2.87
2023-04-08T04:31:23.120Z,2.79
2023-04-08T04:34:20.249Z,2.80
2023-04-08T04:37:17.251Z,2.75
2023-04-08T04:40:14.214Z,2.77
2023-04-08T04:43:11.260Z,2.66
2023-04-08T04:46:09.100Z,2.79
2023-04-08T04:49:06.128Z,2.74
2023-04-08T04:52:02.998Z,2.88
2023-04-08T04:54:59.834Z,2.67
2023-04-08T04:57:56.651Z,2.75
2023-04-08T05:00:53.505Z,2.70
2023-04-08T05:03:50.478Z,2.67
2023-04-08T05:06:47.314Z,2.72
2023-04-08T05:09:44.141Z,2.82
2023-04-08T05:12:41.382Z,2.84
2023-04-08T05:15:38.272Z,2.72
2023-04-08T05:18:35.166Z,2.89
2023-04-08T05:21:32.671Z,2.75
2023-04-08T05:24:29.496Z,2.87
2023-04-08T05:27:26.351Z,2.84
2023-04-08T05:30:23.281Z,2.93
2023-04-08T05:33:20.149Z,2.99
2023-04-08T05:36:17.032Z,2.75
2023-04-08T05:39:14.100Z,2.90
2023-04-08T05:42:12.848Z,2.79
2023-04-08T05:45:10.566Z,2.92
2023-04-08T05:48:07.458Z,2.97
2023-04-08T05:51:04.439Z,2.98
2023-04-08T05:54:01.325Z,2.98
2023-04-08T05:56:58.161Z,2.89
2023-04-08T05:59:55.149Z,2.98
2023-04-08T06:02:52.217Z,3.02
2023-04-08T06:05:49.153Z,3.06
2023-04-08T06:08:45.974Z,2.97
2023-04-08T06:11:43.071Z,2.96
2023-04-08T06:14:39.890Z,3.08
2023-04-08T06:17:37.803Z,3.02
2023-04-08T06:20:36.276Z,3.13
2023-04-08T06:23:33.328Z,3.04
2023-04-08T06:26:30.178Z,3.06
2023-04-08T06:29:26.999Z,3.21
2023-04-08T06:32:23.882Z,3.11
2023-04-08T06:35:20.911Z,3.26
2023-04-08T06:38:17.734Z,3.17
2023-04-08T06:41:14.551Z,3.21
2023-04-08T06:44:11.367Z,3.29
2023-04-08T06:47:08.202Z,3.46
2023-04-08T06:50:05.938Z,3.53
2023-04-08T06:53:02.765Z,3.60
2023-04-08T06:56:00.228Z,3.70
2023-04-08T06:58:57.130Z,3.76
2023-04-08T07:01:54.009Z,3.78
2023-04-08T07:04:50.960Z,3.83
2023-04-08T07:07:47.793Z,3.81
2023-04-08T07:10:44.919Z,4.00
2023-04-08T07:13:41.752Z,4.09
2023-04-08T07:16:38.625Z,4.11
2023-04-08T07:19:36.039Z,4.33
2023-04-08T07:22:32.906Z,4.29
2023-04-08T07:25:29.993Z,4.31
2023-04-08T07:28:26.866Z,4.06
2023-04-08T07:31:23.792Z,4.07
2023-04-08T07:34:20.659Z,4.02
2023-04-08T07:37:18.063Z,3.87
2023-04-08T07:40:15.000Z,3.85
2023-04-08T07:43:12.106Z,3.91
2023-04-08T07:46:09.161Z,4.03
2023-04-08T07:49:06.726Z,4.23
2023-04-08T07:52:03.576Z,4.27
2023-04-08T07:55:01.504Z,4.52
2023-04-08T07:57:58.573Z,4.63
2023-04-08T08:00:57.314Z,4.68
2023-04-08T08:03:54.619Z,4.78
2023-04-08T08:06:51.781Z,4.81
2023-04-08T08:09:49.076Z,4.63
2023-04-08T08:12:45.893Z,4.40
2023-04-08T08:15:42.802Z,4.32
2023-04-08T08:18:41.005Z,4.80
2023-04-08T08:21:38.041Z,4.90
2023-04-08T08:24:34.837Z,4.69
2023-04-08T08:27:31.655Z,4.91
2023-04-08T08:30:28.656Z,4.76
2023-04-08T08:33:25.986Z,4.74
2023-04-08T08:36:22.863Z,4.87
2023-04-08T08:39:19.700Z,4.87
2023-04-08T08:42:24.094Z,4.70
2023-04-08T08:45:21.259Z,4.45
2023-04-08T08:48:18.143Z,4.42
2023-04-08T08:51:14.998Z,4.45
2023-04-08T08:54:11.878Z,4.54
2023-04-08T08:57:20.437Z,4.55
2023-04-08T09:00:17.733Z,4.56
2023-04-08T09:03:21.119Z,4.64
2023-04-08T09:06:18.798Z,4.62
2023-04-08T09:09:15.915Z,4.67
2023-04-08T09:12:14.007Z,4.62
2023-04-08T09:15:11.081Z,4.82
2023-04-08T09:18:23.282Z,4.75
2023-04-08T09:21:24.864Z,4.51
2023-04-08T09:24:30.399Z,4.48
2023-04-08T09:27:36.360Z,4.43
2023-04-08T09:30:33.259Z,4.33
2023-04-08T09:33:33.261Z,4.51
2023-04-08T09:36:30.722Z,4.69
2023-04-08T09:39:27.541Z,4.67
2023-04-08T09:42:26.223Z,4.94
2023-04-08T09:45:25.509Z,4.95
2023-04-08T09:48:27.811Z,4.82
2023-04-08T09:51:25.566Z,5.00
2023-04-08T09:54:25.270Z,4.71
2023-04-08T09:57:53.021Z,4.69
2023-04-08T10:00:53.493Z,4.62
2023-04-08T10:03:54.984Z,4.56
2023-04-08T10:07:03.556Z,4.46
2023-04-08T10:10:00.476Z,4.42
2023-04-08T10:12:57.811Z,4.56
2023-04-08T10:16:27.613Z,4.91
2023-04-08T10:19:43.461Z,4.81
2023-04-08T10:22:50.386Z,4.80
2023-04-08T10:25:48.825Z,4.75
2023-04-08T10:28:45.801Z,4.72
2023-04-08T10:31:42.798Z,4.75
2023-04-08T10:34:54.060Z,5.01
2023-04-08T10:37:50.899Z,5.01
2023-04-08T10:40:49.528Z,4.82
2023-04-08T10:43:47.509Z,5.00
2023-04-08T10:46:49.130Z,5.31
2023-04-08T10:49:47.503Z,5.11
2023-04-08T10:52:50.821Z,5.41
2023-04-08T10:55:47.665Z,5.06
2023-04-08T10:58:52.836Z,5.05
2023-04-08T11:01:49.745Z,5.27
2023-04-08T11:04:48.362Z,5.31
2023-04-08T11:07:45.522Z,5.03
2023-04-08T11:10:44.937Z,4.87
2023-04-08T11:13:52.614Z,4.89
2023-04-08T11:16:50.283Z,5.03
2023-04-08T11:19:47.381Z,5.02
2023-04-08T11:22:45.204Z,5.09
2023-04-08T11:25:43.507Z,4.97
2023-04-08T11:28:40.418Z,4.87
2023-04-08T11:31:37.762Z,4.91
2023-04-08T11:34:39.495Z,4.96
2023-04-08T11:37:41.284Z,5.07
2023-04-08T11:40:38.759Z,5.11
2023-04-08T11:43:40.930Z,5.05
2023-04-08T11:46:38.101Z,5.10
2023-04-08T11:49:45.726Z,5.37
2023-04-08T11:52:49.479Z,5.19
2023-04-08T11:55:46.692Z,5.44
2023-04-08T11:58:43.510Z,5.53
2023-04-08T12:01:40.406Z,5.74
2023-04-08T12:04:37.298Z,5.91
2023-04-08T12:07:34.135Z,5.93
2023-04-08T12:10:31.246Z,5.59
2023-04-08T12:13:28.159Z,5.86
2023-04-08T12:16:25.096Z,5.86
2023-04-08T12:19:22.137Z,6.47
2023-04-08T12:22:19.063Z,6.41
2023-04-08T12:25:16.217Z,6.45
2023-04-08T12:28:13.097Z,6.37
2023-04-08T12:31:09.935Z,5.92
2023-04-08T12:34:07.119Z,5.92
2023-04-08T12:37:03.971Z,5.84
2023-04-08T12:40:01.297Z,5.88
2023-04-08T12:42:58.238Z,5.78
2023-04-08T12:45:55.049Z,5.72
2023-04-08T12:49:03.125Z,5.85
2023-04-08T12:52:01.251Z,6.15
2023-04-08T12:54:58.066Z,6.08
2023-04-08T12:57:54.913Z,6.12
2023-04-08T13:00:51.863Z,5.94
2023-04-08T13:03:49.006Z,6.31
2023-04-08T13:06:46.266Z,6.36
2023-04-08T13:09:45.381Z,6.26
2023-04-08T13:12:42.627Z,6.14
2023-04-08T13:15:39.717Z,6.19
2023-04-08T13:18:36.723Z,6.35
2023-04-08T13:21:33.598Z,6.37
2023-04-08T13:24:30.428Z,7.30
2023-04-08T13:27:27.330Z,6.88
2023-04-08T13:30:24.176Z,7.32
2023-04-08T13:33:22.218Z,6.96
2023-04-08T13:36:19.070Z,7.39
2023-04-08T13:39:15.955Z,7.17
2023-04-08T13:42:12.781Z,7.21
2023-04-08T13:45:10.155Z,7.58
2023-04-08T13:48:07.538Z,7.76
2023-04-08T13:51:04.460Z,7.56
2023-04-08T13:54:01.331Z,7.32
2023-04-08T13:56:58.172Z,6.96
2023-04-08T13:59:55.028Z,6.94
2023-04-08T14:02:52.315Z,6.39
2023-04-08T14:05:50.906Z,6.33
2023-04-08T14:08:47.749Z,6.54
2023-04-08T14:11:44.656Z,6.75
2023-04-08T14:14:41.628Z,6.75
2023-04-08T14:17:38.752Z,6.94
2023-04-08T14:20:35.874Z,6.84
2023-04-08T14:23:32.882Z,6.88
2023-04-08T14:26:29.785Z,6.94
2023-04-08T14:29:27.677Z,8.65
2023-04-08T14:32:24.693Z,8.14
2023-04-08T14:35:21.831Z,7.61
2023-04-08T14:38:20.481Z,7.13
2023-04-08T14:41:17.288Z,6.87
2023-04-08T14:44:14.220Z,6.56
2023-04-08T14:47:12.166Z,6.72
2023-04-08T14:50:09.505Z,6.52
2023-04-08T14:53:06.385Z,6.52
2023-04-08T14:56:04.149Z,6.67
2023-04-08T14:59:01.018Z,6.56
2023-04-08T15:01:58.017Z,8.11
2023-04-08T15:04:54.872Z,8.02
2023-04-08T15:07:51.766Z,9.35
2023-04-08T15:10:48.737Z,7.54
2023-04-08T15:13:45.674Z,7.43
2023-04-08T15:16:42.551Z,7.70
2023-04-08T15:19:39.348Z,7.74
2023-04-08T15:22:36.509Z,7.40
2023-04-08T15:25:33.320Z,7.45
2023-04-08T15:28:30.134Z,7.30
2023-04-08T15:31:27.347Z,7.02
2023-04-08T15:34:24.257Z,6.74
2023-04-08T15:37:22.590Z,6.31
2023-04-08T15:40:19.522Z,6.51
2023-04-08T15:43:16.451Z,6.43
2023-04-08T15:46:19.172Z,6.36
2023-04-08T15:49:16.708Z,6.39
2023-04-08T15:52:13.515Z,6.35
2023-04-08T15:55:10.613Z,6.51
2023-04-08T15:58:07.681Z,6.32
2023-04-08T16:01:04.860Z,6.39
2023-04-08T16:04:02.285Z,6.33
2023-04-08T16:06:59.218Z,6.12
2023-04-08T16:09:56.082Z,6.08
2023-04-08T16:12:53.162Z,6.25
2023-04-08T16:15:50.712Z,5.93
2023-04-08T16:18:48.577Z,5.88
2023-04-08T16:21:45.454Z,5.90
2023-04-08T16:24:42.346Z,6.19
2023-04-08T16:27:39.216Z,6.05
2023-04-08T16:30:37.612Z,5.96
2023-04-08T16:33:34.448Z,6.06
2023-04-08T16:36:31.288Z,5.98
2023-04-08T16:39:28.444Z,5.99
2023-04-08T16:42:25.358Z,6.08
2023-04-08T16:45:22.201Z,6.09
2023-04-08T16:48:19.331Z,6.04
2023-04-08T16:51:17.514Z,6.07
2023-04-08T16:54:14.373Z,6.14
2023-04-08T16:57:11.414Z,6.02
2023-04-08T17:00:09.148Z,5.89
2023-04-08T17:03:08.484Z,5.81
2023-04-08T17:06:12.041Z,5.85
2023-04-08T17:09:09.184Z,5.95
2023-04-08T17:12:06.284Z,5.88
2023-04-08T17:15:03.947Z,5.90
2023-04-08T17:18:01.030Z,5.86
2023-04-08T17:20:57.980Z,5.87
2023-04-08T17:23:54.888Z,5.69
2023-04-08T17:26:52.604Z,5.81
2023-04-08T17:29:49.850Z,5.82
2023-04-08T17:32:46.692Z,5.65
2023-04-08T17:35:43.598Z,5.86
2023-04-08T17:38:41.196Z,5.80
2023-04-08T17:41:40.736Z,5.87
2023-04-08T17:44:38.537Z,5.70
2023-04-08T17:47:35.498Z,5.76
2023-04-08T17:50:33.086Z,5.85
2023-04-08T17:53:30.509Z,5.57
2023-04-08T17:56:28.211Z,5.56
2023-04-08T17:59:25.590Z,5.56
2023-04-08T18:02:22.631Z,5.49
2023-04-08T18:05:20.259Z,5.67
2023-04-08T18:08:17.162Z,5.56
2023-04-08T18:11:14.114Z,5.61
2023-04-08T18:14:12.475Z,5.53
2023-04-08T18:17:09.423Z,5.52
2023-04-08T18:20:07.319Z,5.41
2023-04-08T18:23:04.473Z,5.45
2023-04-08T18:26:01.320Z,5.49
2023-04-08T18:28:58.174Z,5.41
2023-04-08T18:31:54.999Z,5.39
2023-04-08T18:34:53.088Z,5.41
2023-04-08T18:37:49.922Z,5.54
2023-04-08T18:40:46.773Z,5.58
2023-04-08T18:43:43.573Z,5.43
2023-04-08T18:46:40.509Z,5.31
2023-04-08T18:49:40.073Z,5.31
2023-04-08T18:52:37.446Z,5.36
2023-04-08T18:55:38.689Z,5.51
2023-04-08T18:58:36.764Z,5.37
2023-04-08T19:01:35.869Z,5.34
2023-04-08T19:04:33.468Z,5.34
2023-04-08T19:07:30.489Z,5.47
2023-04-08T19:10:34.363Z,5.28
2023-04-08T19:13:31.587Z,5.27
2023-04-08T19:16:28.487Z,5.34
2023-04-08T19:19:25.430Z,5.41
2023-04-08T19:22:22.395Z,5.30
2023-04-08T19:25:19.852Z,5.25
2023-04-08T19:28:16.692Z,5.14
2023-04-08T19:31:18.489Z,5.23
2023-04-08T19:34:15.382Z,5.30
2023-04-08T19:37:12.264Z,5.28
2023-04-08T19:40:10.082Z,5.27
2023-04-08T19:43:06.906Z,5.30
2023-04-08T19:46:03.806Z,5.50
2023-04-08T19:49:00.723Z,5.36
2023-04-08T19:51:58.441Z,5.17
2023-04-08T19:54:55.280Z,5.12
2023-04-08T19:57:52.382Z,5.20
2023-04-08T20:00:49.181Z,5.24
2023-04-08T20:03:50.250Z,5.18
2023-04-08T20:06:47.381Z,5.21
2023-04-08T20:09:44.331Z,5.26
2023-04-08T20:12:41.425Z,5.23
2023-04-08T20:15:38.250Z,5.18
2023-04-08T20:18:35.112Z,5.22
2023-04-08T20:21:32.644Z,5.35
2023-04-08T20:24:29.551Z,5.22
2023-04-08T20:27:27.131Z,5.15
2023-04-08T20:30:24.115Z,5.20
2023-04-08T20:33:21.085Z,5.25
2023-04-08T20:36:17.910Z,5.12
2023-04-08T20:39:14.741Z,5.22
2023-04-08T20:42:11.557Z,5.18
2023-04-08T20:45:09.419Z,5.20
2023-04-08T20:48:07.499Z,5.11
2023-04-08T20:51:04.456Z,5.04
2023-04-08T20:54:01.308Z,5.05
2023-04-08T20:56:58.146Z,5.16
2023-04-08T20:59:54.972Z,4.93
2023-04-08T21:02:52.756Z,5.12
2023-04-08T21:05:50.193Z,5.12
2023-04-08T21:08:48.076Z,5.03
2023-04-08T21:11:44.948Z,4.99
2023-04-08T21:14:42.091Z,4.89
2023-04-08T21:17:39.016Z,4.88
2023-04-08T21:20:36.184Z,4.87
2023-04-08T21:23:33.032Z,5.07
2023-04-08T21:26:29.909Z,5.02
2023-04-08T21:29:26.717Z,4.98
2023-04-08T21:32:23.793Z,4.98
2023-04-08T21:35:20.790Z,4.95
2023-04-08T21:38:17.621Z,4.95
2023-04-08T21:41:14.555Z,4.98
2023-04-08T21:44:11.432Z,4.89
2023-04-08T21:47:08.271Z,4.89
2023-04-08T21:50:06.139Z,4.79
2023-04-08T21:53:02.988Z,4.82
2023-04-08T21:55:59.816Z,4.62
2023-04-08T21:58:56.614Z,4.74
2023-04-08T22:01:53.910Z,4.62
2023-04-08T22:04:51.949Z,4.56
2023-04-08T22:07:48.809Z,4.58
2023-04-08T22:10:46.518Z,4.55
2023-04-08T22:13:43.312Z,4.43
2023-04-08T22:16:40.157Z,4.30
2023-04-08T22:19:36.963Z,4.40
2023-04-08T22:22:33.782Z,4.41
2023-04-08T22:25:30.652Z,4.48
2023-04-08T22:28:27.479Z,4.47
2023-04-08T22:31:24.403Z,4.42
2023-04-08T22:34:21.417Z,4.50
2023-04-08T22:37:18.304Z,4.40
2023-04-08T22:40:15.498Z,4.48
2023-04-08T22:43:12.307Z,4.49
2023-04-08T22:46:09.147Z,4.59
2023-04-08T22:49:06.253Z,4.45
2023-04-08T22:52:03.075Z,4.45
2023-04-08T22:54:59.920Z,4.25
2023-04-08T22:57:56.927Z,4.36
2023-04-08T23:00:53.756Z,4.31
2023-04-08T23:03:50.605Z,4.32
2023-04-08T23:06:47.488Z,4.38
2023-04-08T23:09:44.298Z,4.26
2023-04-08T23:12:41.673Z,4.22
2023-04-08T23:15:38.656Z,4.26
2023-04-08T23:18:35.701Z,4.34
2023-04-08T23:21:32.550Z,4.30
2023-04-08T23:24:29.373Z,4.22
2023-04-08T23:27:26.184Z,4.21
2023-04-08T23:30:23.124Z,4.26
2023-04-08T23:33:19.981Z,4.14
2023-04-08T23:36:16.835Z,4.13
2023-04-08T23:39:13.698Z,4.16
2023-04-08T23:42:10.506Z,4.24
2023-04-08T23:45:07.799Z,4.31
2023-04-08T23:48:05.037Z,4.19
2023-04-08T23:51:01.858Z,4.13
2023-04-08T23:53:58.703Z,4.08
2023-04-08T23:56:56.043Z,3.97
2023-04-08T23:59:52.858Z,4.16
